EWG81E EDDS-EGKK
Flight info
| Callsign | EWG81E |
|---|---|
| Flight time | 1h 16m |
| Altitude | 36000 |
| Route | VESID4B VESID Y127 BANIM L608 LIRSU DCT SPI DCT DENUT L610 TEBRA |
| Aircraft | A320/M-SDE3FGHIRWY/LB1 |
Departure
| Time | 2026-05-07 19:46 |
|---|---|
| Airport | Stuttgart Airport (EDDS) |
Arrival
| Time | 2026-05-07 21:03 |
|---|---|
| Airport | London Gatwick Airport (EGKK) |
| Time | Latitude | Longitude | Altitude | Speed | Heading |
|---|---|---|---|---|---|
| 2026-05-07 19:23 | 48.68810 | 9.19745 | 1295 ft | 0 kts | 164° |
| 2026-05-07 19:38 | 48.68789 | 9.19754 | 1295 ft | 5 kts | 163° |
| 2026-05-07 19:39 | 48.68759 | 9.19776 | 1295 ft | 5 kts | 133° |
| 2026-05-07 19:39 | 48.68758 | 9.19833 | 1294 ft | 8 kts | 79° |
| 2026-05-07 19:39 | 48.68786 | 9.19918 | 1292 ft | 10 kts | 53° |
| 2026-05-07 19:39 | 48.68834 | 9.20021 | 1289 ft | 19 kts | 63° |
| 2026-05-07 19:40 | 48.68880 | 9.20247 | 1287 ft | 24 kts | 75° |
| 2026-05-07 19:40 | 48.68927 | 9.20495 | 1279 ft | 21 kts | 75° |
| 2026-05-07 19:40 | 48.68972 | 9.20728 | 1274 ft | 25 kts | 73° |
| 2026-05-07 19:40 | 48.69014 | 9.20954 | 1267 ft | 22 kts | 74° |
| 2026-05-07 19:41 | 48.69058 | 9.21187 | 1266 ft | 19 kts | 74° |
| 2026-05-07 19:41 | 48.69099 | 9.21400 | 1261 ft | 23 kts | 73° |
| 2026-05-07 19:41 | 48.69146 | 9.21648 | 1252 ft | 26 kts | 73° |
| 2026-05-07 19:41 | 48.69190 | 9.21882 | 1246 ft | 24 kts | 73° |
| 2026-05-07 19:42 | 48.69238 | 9.22138 | 1245 ft | 27 kts | 74° |
| 2026-05-07 19:42 | 48.69287 | 9.22394 | 1239 ft | 23 kts | 74° |
| 2026-05-07 19:42 | 48.69334 | 9.22643 | 1229 ft | 26 kts | 74° |
| 2026-05-07 19:42 | 48.69388 | 9.22923 | 1222 ft | 29 kts | 74° |
| 2026-05-07 19:43 | 48.69427 | 9.23133 | 1218 ft | 20 kts | 73° |
| 2026-05-07 19:43 | 48.69472 | 9.23366 | 1212 ft | 25 kts | 74° |
| 2026-05-07 19:43 | 48.69522 | 9.23635 | 1206 ft | 28 kts | 74° |
| 2026-05-07 19:43 | 48.69577 | 9.23934 | 1199 ft | 31 kts | 74° |
| 2026-05-07 19:44 | 48.69574 | 9.24240 | 1193 ft | 29 kts | 125° |
| 2026-05-07 19:44 | 48.69429 | 9.24323 | 1190 ft | 24 kts | 199° |
| 2026-05-07 19:44 | 48.69360 | 9.24161 | 1193 ft | 0 kts | 253° |
| 2026-05-07 19:45 | 48.69342 | 9.24067 | 1194 ft | 37 kts | 255° |
| 2026-05-07 19:45 | 48.69204 | 9.23333 | 1214 ft | 104 kts | 253° |
| 2026-05-07 19:46 | 48.68952 | 9.22025 | 1246 ft | 153 kts | 254° |
| 2026-05-07 19:46 | 48.68633 | 9.20364 | 1591 ft | 170 kts | 254° |
| 2026-05-07 19:46 | 48.68266 | 9.18543 | 1980 ft | 194 kts | 253° |
| 2026-05-07 19:46 | 48.67829 | 9.16508 | 2414 ft | 212 kts | 252° |
| 2026-05-07 19:47 | 48.67330 | 9.14314 | 2889 ft | 230 kts | 251° |
| 2026-05-07 19:47 | 48.66851 | 9.11949 | 3594 ft | 235 kts | 260° |
| 2026-05-07 19:47 | 48.66924 | 9.09629 | 4832 ft | 215 kts | 293° |
| 2026-05-07 19:47 | 48.67776 | 9.07753 | 5424 ft | 229 kts | 314° |
| 2026-05-07 19:48 | 48.69155 | 9.06410 | 5947 ft | 245 kts | 337° |
| 2026-05-07 19:48 | 48.70867 | 9.05659 | 6412 ft | 265 kts | 345° |
| 2026-05-07 19:48 | 48.72672 | 9.04907 | 7133 ft | 272 kts | 341° |
| 2026-05-07 19:48 | 48.74485 | 9.04025 | 7937 ft | 276 kts | 340° |
| 2026-05-07 19:49 | 48.76311 | 9.03050 | 8743 ft | 280 kts | 334° |
| 2026-05-07 19:49 | 48.77903 | 9.01375 | 9537 ft | 281 kts | 311° |
| 2026-05-07 19:49 | 48.79209 | 8.99158 | 10312 ft | 285 kts | 309° |
| 2026-05-07 19:49 | 48.80563 | 8.96808 | 10614 ft | 307 kts | 309° |
| 2026-05-07 19:50 | 48.82016 | 8.94269 | 10867 ft | 328 kts | 309° |
| 2026-05-07 19:50 | 48.83534 | 8.91617 | 11463 ft | 336 kts | 310° |
| 2026-05-07 19:50 | 48.85083 | 8.88922 | 12164 ft | 341 kts | 310° |
| 2026-05-07 19:50 | 48.86651 | 8.86196 | 12880 ft | 345 kts | 310° |
| 2026-05-07 19:51 | 48.88241 | 8.83428 | 13567 ft | 349 kts | 310° |
| 2026-05-07 19:51 | 48.89846 | 8.80628 | 14212 ft | 353 kts | 310° |
| 2026-05-07 19:51 | 48.91466 | 8.77798 | 14854 ft | 356 kts | 310° |
| 2026-05-07 19:51 | 48.93095 | 8.74947 | 15515 ft | 358 kts | 309° |
| 2026-05-07 19:52 | 48.94735 | 8.72073 | 16167 ft | 361 kts | 309° |
| 2026-05-07 19:52 | 48.96384 | 8.69182 | 16827 ft | 363 kts | 309° |
| 2026-05-07 19:52 | 48.98041 | 8.66273 | 17480 ft | 365 kts | 309° |
| 2026-05-07 19:52 | 48.99711 | 8.63338 | 18117 ft | 368 kts | 309° |
| 2026-05-07 19:53 | 49.01392 | 8.60387 | 18684 ft | 370 kts | 309° |
| 2026-05-07 19:53 | 49.03082 | 8.57412 | 19216 ft | 373 kts | 309° |
| 2026-05-07 19:53 | 49.04782 | 8.54410 | 19738 ft | 375 kts | 309° |
| 2026-05-07 19:53 | 49.06495 | 8.51380 | 20251 ft | 378 kts | 309° |
| 2026-05-07 19:54 | 49.08219 | 8.48330 | 20749 ft | 381 kts | 309° |
| 2026-05-07 19:54 | 49.09957 | 8.45254 | 21261 ft | 384 kts | 309° |
| 2026-05-07 19:54 | 49.11682 | 8.42196 | 21745 ft | 386 kts | 309° |
| 2026-05-07 19:54 | 49.13456 | 8.39053 | 21957 ft | 397 kts | 309° |
| 2026-05-07 19:55 | 49.15285 | 8.35809 | 22097 ft | 408 kts | 309° |
| 2026-05-07 19:55 | 49.17159 | 8.32481 | 22225 ft | 418 kts | 309° |
| 2026-05-07 19:55 | 49.19071 | 8.29076 | 22404 ft | 426 kts | 309° |
| 2026-05-07 19:55 | 49.21010 | 8.25619 | 22724 ft | 430 kts | 309° |
| 2026-05-07 19:56 | 49.22964 | 8.22131 | 23104 ft | 433 kts | 309° |
| 2026-05-07 19:56 | 49.24928 | 8.18618 | 23493 ft | 435 kts | 309° |
| 2026-05-07 19:56 | 49.26901 | 8.15094 | 23840 ft | 437 kts | 309° |
| 2026-05-07 19:56 | 49.28879 | 8.11555 | 24160 ft | 439 kts | 309° |
| 2026-05-07 19:57 | 49.30868 | 8.07978 | 24483 ft | 441 kts | 309° |
| 2026-05-07 19:57 | 49.32860 | 8.04388 | 24786 ft | 443 kts | 309° |
| 2026-05-07 19:57 | 49.34857 | 8.00788 | 25081 ft | 445 kts | 309° |
| 2026-05-07 19:57 | 49.36868 | 7.97164 | 25379 ft | 446 kts | 309° |
| 2026-05-07 19:58 | 49.38880 | 7.93532 | 25677 ft | 448 kts | 309° |
| 2026-05-07 19:58 | 49.40904 | 7.89873 | 25969 ft | 450 kts | 309° |
| 2026-05-07 19:58 | 49.42933 | 7.86203 | 26265 ft | 452 kts | 309° |
| 2026-05-07 19:58 | 49.44970 | 7.82513 | 26538 ft | 453 kts | 309° |
| 2026-05-07 19:59 | 49.47011 | 7.78813 | 26813 ft | 455 kts | 309° |
| 2026-05-07 19:59 | 49.49065 | 7.75091 | 27085 ft | 457 kts | 309° |
| 2026-05-07 19:59 | 49.51117 | 7.71363 | 27335 ft | 458 kts | 309° |
| 2026-05-07 19:59 | 49.53185 | 7.67595 | 27583 ft | 460 kts | 309° |
| 2026-05-07 20:00 | 49.55253 | 7.63824 | 27857 ft | 462 kts | 309° |
| 2026-05-07 20:00 | 49.57317 | 7.60054 | 28225 ft | 461 kts | 309° |
| 2026-05-07 20:00 | 49.59378 | 7.56274 | 28589 ft | 460 kts | 309° |
| 2026-05-07 20:00 | 49.61432 | 7.52503 | 28976 ft | 459 kts | 309° |
| 2026-05-07 20:01 | 49.63482 | 7.48737 | 29353 ft | 458 kts | 309° |
| 2026-05-07 20:01 | 49.65519 | 7.44992 | 29724 ft | 457 kts | 309° |
| 2026-05-07 20:01 | 49.67566 | 7.41229 | 30115 ft | 456 kts | 309° |
| 2026-05-07 20:01 | 49.69599 | 7.37484 | 30442 ft | 455 kts | 309° |
| 2026-05-07 20:02 | 49.71627 | 7.33742 | 30761 ft | 454 kts | 309° |
| 2026-05-07 20:02 | 49.73652 | 7.29996 | 31068 ft | 453 kts | 308° |
| 2026-05-07 20:02 | 49.75669 | 7.26260 | 31371 ft | 452 kts | 308° |
| 2026-05-07 20:02 | 49.77682 | 7.22526 | 31696 ft | 451 kts | 308° |
| 2026-05-07 20:03 | 49.79690 | 7.18802 | 32001 ft | 451 kts | 308° |
| 2026-05-07 20:03 | 49.81697 | 7.15070 | 32324 ft | 450 kts | 308° |
| 2026-05-07 20:03 | 49.83670 | 7.11393 | 32632 ft | 449 kts | 308° |
| 2026-05-07 20:03 | 49.85659 | 7.07680 | 32937 ft | 448 kts | 308° |
| 2026-05-07 20:04 | 49.87652 | 7.03955 | 33241 ft | 447 kts | 308° |
| 2026-05-07 20:04 | 49.89631 | 7.00248 | 33559 ft | 447 kts | 308° |
| 2026-05-07 20:04 | 49.91615 | 6.96534 | 33846 ft | 446 kts | 308° |
| 2026-05-07 20:04 | 49.93593 | 6.92831 | 34130 ft | 445 kts | 308° |
| 2026-05-07 20:05 | 49.95563 | 6.89133 | 34357 ft | 445 kts | 308° |
| 2026-05-07 20:05 | 49.97537 | 6.85421 | 34584 ft | 445 kts | 308° |
| 2026-05-07 20:05 | 49.99503 | 6.81716 | 34817 ft | 445 kts | 308° |
| 2026-05-07 20:05 | 50.01477 | 6.77991 | 35036 ft | 446 kts | 307° |
| 2026-05-07 20:06 | 50.03444 | 6.74273 | 35265 ft | 446 kts | 307° |
| 2026-05-07 20:06 | 50.05416 | 6.70544 | 35489 ft | 446 kts | 307° |
| 2026-05-07 20:06 | 50.07343 | 6.66761 | 35682 ft | 445 kts | 301° |
| 2026-05-07 20:06 | 50.08883 | 6.62605 | 35864 ft | 444 kts | 297° |
| 2026-05-07 20:07 | 50.10370 | 6.58387 | 36025 ft | 444 kts | 297° |
| 2026-05-07 20:07 | 50.11851 | 6.54160 | 36071 ft | 445 kts | 297° |
| 2026-05-07 20:07 | 50.14807 | 6.45709 | 36070 ft | 444 kts | 297° |
| 2026-05-07 20:08 | 50.17762 | 6.37239 | 36073 ft | 444 kts | 297° |
| 2026-05-07 20:08 | 50.20714 | 6.28764 | 36077 ft | 444 kts | 296° |
| 2026-05-07 20:09 | 50.23654 | 6.20283 | 36082 ft | 444 kts | 296° |
| 2026-05-07 20:10 | 50.28055 | 6.07536 | 36088 ft | 444 kts | 296° |
| 2026-05-07 20:10 | 50.30981 | 5.99025 | 36086 ft | 444 kts | 296° |
| 2026-05-07 20:11 | 50.33880 | 5.90547 | 36090 ft | 444 kts | 296° |
| 2026-05-07 20:11 | 50.36783 | 5.82014 | 36084 ft | 444 kts | 296° |
| 2026-05-07 20:12 | 50.39693 | 5.73475 | 36086 ft | 444 kts | 296° |
| 2026-05-07 20:12 | 50.42598 | 5.64929 | 36096 ft | 444 kts | 296° |
| 2026-05-07 20:13 | 50.45489 | 5.56370 | 36095 ft | 444 kts | 296° |
| 2026-05-07 20:13 | 50.48378 | 5.47797 | 36091 ft | 444 kts | 296° |
| 2026-05-07 20:14 | 50.51258 | 5.39222 | 36088 ft | 444 kts | 296° |
| 2026-05-07 20:14 | 50.54131 | 5.30628 | 36090 ft | 444 kts | 296° |
| 2026-05-07 20:15 | 50.57007 | 5.22019 | 36094 ft | 444 kts | 296° |
| 2026-05-07 20:15 | 50.59868 | 5.13423 | 36089 ft | 444 kts | 296° |
| 2026-05-07 20:16 | 50.62703 | 5.04847 | 36093 ft | 444 kts | 295° |
| 2026-05-07 20:16 | 50.65547 | 4.96217 | 36098 ft | 444 kts | 296° |
| 2026-05-07 20:17 | 50.67929 | 4.88987 | 36098 ft | 444 kts | 295° |
| 2026-05-07 20:17 | 50.70769 | 4.80336 | 36092 ft | 444 kts | 295° |
| 2026-05-07 20:18 | 50.73598 | 4.71680 | 36096 ft | 444 kts | 295° |
| 2026-05-07 20:18 | 50.76413 | 4.63019 | 36095 ft | 444 kts | 295° |
| 2026-05-07 20:19 | 50.79231 | 4.54342 | 36091 ft | 444 kts | 295° |
| 2026-05-07 20:19 | 50.82027 | 4.45703 | 36094 ft | 444 kts | 295° |
| 2026-05-07 20:20 | 50.84835 | 4.37005 | 36093 ft | 444 kts | 295° |
| 2026-05-07 20:20 | 50.87636 | 4.28282 | 36091 ft | 444 kts | 295° |
| 2026-05-07 20:21 | 50.90387 | 4.19675 | 36081 ft | 432 kts | 295° |
| 2026-05-07 20:21 | 50.93081 | 4.11221 | 36085 ft | 429 kts | 295° |
| 2026-05-07 20:22 | 50.95764 | 4.02785 | 36082 ft | 428 kts | 295° |
| 2026-05-07 20:22 | 50.98436 | 3.94338 | 36082 ft | 428 kts | 295° |
| 2026-05-07 20:23 | 51.01103 | 3.85883 | 36082 ft | 428 kts | 295° |
| 2026-05-07 20:23 | 51.03770 | 3.77418 | 36086 ft | 428 kts | 295° |
| 2026-05-07 20:24 | 51.06429 | 3.68946 | 36086 ft | 428 kts | 294° |
| 2026-05-07 20:24 | 51.07757 | 3.64693 | 35936 ft | 429 kts | 294° |
| 2026-05-07 20:24 | 51.09081 | 3.60455 | 35689 ft | 428 kts | 294° |
| 2026-05-07 20:24 | 51.10402 | 3.56213 | 35437 ft | 427 kts | 294° |
| 2026-05-07 20:25 | 51.11719 | 3.51971 | 35204 ft | 427 kts | 294° |
| 2026-05-07 20:25 | 51.13033 | 3.47738 | 34966 ft | 426 kts | 294° |
| 2026-05-07 20:25 | 51.14343 | 3.43514 | 34720 ft | 425 kts | 294° |
| 2026-05-07 20:25 | 51.15653 | 3.39287 | 34484 ft | 425 kts | 294° |
| 2026-05-07 20:26 | 51.16957 | 3.35071 | 34251 ft | 424 kts | 294° |
| 2026-05-07 20:26 | 51.18259 | 3.30854 | 34001 ft | 424 kts | 294° |
| 2026-05-07 20:26 | 51.19557 | 3.26637 | 33715 ft | 423 kts | 294° |
| 2026-05-07 20:26 | 51.20852 | 3.22422 | 33450 ft | 423 kts | 294° |
| 2026-05-07 20:27 | 51.22143 | 3.18213 | 33173 ft | 422 kts | 294° |
| 2026-05-07 20:27 | 51.23429 | 3.14015 | 32904 ft | 420 kts | 294° |
| 2026-05-07 20:27 | 51.24693 | 3.09882 | 32640 ft | 418 kts | 294° |
| 2026-05-07 20:27 | 51.25979 | 3.05663 | 32377 ft | 416 kts | 294° |
| 2026-05-07 20:28 | 51.27225 | 3.01567 | 32107 ft | 414 kts | 294° |
| 2026-05-07 20:28 | 51.28480 | 2.97437 | 31848 ft | 412 kts | 294° |
| 2026-05-07 20:28 | 51.29731 | 2.93322 | 31589 ft | 411 kts | 294° |
| 2026-05-07 20:28 | 51.30975 | 2.89226 | 31334 ft | 409 kts | 294° |
| 2026-05-07 20:29 | 51.32209 | 2.85151 | 31083 ft | 407 kts | 294° |
| 2026-05-07 20:29 | 51.33439 | 2.81076 | 30830 ft | 405 kts | 294° |
| 2026-05-07 20:29 | 51.34638 | 2.77012 | 30583 ft | 403 kts | 290° |
| 2026-05-07 20:29 | 51.35517 | 2.72807 | 30103 ft | 396 kts | 282° |
| 2026-05-07 20:30 | 51.36057 | 2.68504 | 29530 ft | 392 kts | 279° |
| 2026-05-07 20:30 | 51.36576 | 2.64247 | 29025 ft | 387 kts | 279° |
| 2026-05-07 20:30 | 51.37094 | 2.60040 | 28515 ft | 383 kts | 280° |
| 2026-05-07 20:30 | 51.37607 | 2.55886 | 28012 ft | 378 kts | 280° |
| 2026-05-07 20:31 | 51.38109 | 2.51827 | 27536 ft | 374 kts | 280° |
| 2026-05-07 20:31 | 51.38614 | 2.47712 | 27053 ft | 370 kts | 279° |
| 2026-05-07 20:31 | 51.39104 | 2.43690 | 26587 ft | 366 kts | 279° |
| 2026-05-07 20:31 | 51.39585 | 2.39718 | 26126 ft | 362 kts | 279° |
| 2026-05-07 20:32 | 51.40059 | 2.35774 | 25683 ft | 359 kts | 279° |
| 2026-05-07 20:32 | 51.40526 | 2.31867 | 25254 ft | 355 kts | 279° |
| 2026-05-07 20:32 | 51.40988 | 2.28001 | 24826 ft | 352 kts | 279° |
| 2026-05-07 20:32 | 51.41444 | 2.24171 | 24408 ft | 349 kts | 279° |
| 2026-05-07 20:33 | 51.41895 | 2.20394 | 24119 ft | 355 kts | 279° |
| 2026-05-07 20:33 | 51.42366 | 2.16456 | 24083 ft | 364 kts | 279° |
| 2026-05-07 20:33 | 51.42843 | 2.12444 | 24097 ft | 367 kts | 279° |
| 2026-05-07 20:33 | 51.43318 | 2.08413 | 24095 ft | 368 kts | 279° |
| 2026-05-07 20:34 | 51.43791 | 2.04387 | 24094 ft | 368 kts | 279° |
| 2026-05-07 20:34 | 51.44263 | 2.00352 | 24092 ft | 368 kts | 279° |
| 2026-05-07 20:34 | 51.44743 | 1.96331 | 24094 ft | 368 kts | 280° |
| 2026-05-07 20:34 | 51.45241 | 1.92287 | 24095 ft | 369 kts | 280° |
| 2026-05-07 20:35 | 51.45747 | 1.88252 | 24096 ft | 369 kts | 280° |
| 2026-05-07 20:35 | 51.46253 | 1.84217 | 23705 ft | 370 kts | 280° |
| 2026-05-07 20:35 | 51.46750 | 1.80094 | 22620 ft | 381 kts | 279° |
| 2026-05-07 20:35 | 51.47237 | 1.75902 | 21889 ft | 382 kts | 279° |
| 2026-05-07 20:36 | 51.47711 | 1.71717 | 21291 ft | 380 kts | 279° |
| 2026-05-07 20:36 | 51.48181 | 1.67558 | 20729 ft | 378 kts | 279° |
| 2026-05-07 20:36 | 51.48521 | 1.63404 | 20174 ft | 375 kts | 270° |
| 2026-05-07 20:36 | 51.48307 | 1.59263 | 19657 ft | 371 kts | 258° |
| 2026-05-07 20:37 | 51.47556 | 1.55334 | 19132 ft | 369 kts | 249° |
| 2026-05-07 20:37 | 51.46665 | 1.51484 | 18622 ft | 367 kts | 249° |
| 2026-05-07 20:37 | 51.45782 | 1.47657 | 18097 ft | 365 kts | 249° |
| 2026-05-07 20:37 | 51.44903 | 1.43847 | 17559 ft | 363 kts | 249° |
| 2026-05-07 20:38 | 51.43954 | 1.40116 | 17052 ft | 360 kts | 242° |
| 2026-05-07 20:38 | 51.42544 | 1.36836 | 16555 ft | 357 kts | 228° |
| 2026-05-07 20:38 | 51.40696 | 1.34206 | 16080 ft | 354 kts | 217° |
| 2026-05-07 20:38 | 51.38715 | 1.31862 | 15595 ft | 353 kts | 217° |
| 2026-05-07 20:39 | 51.36748 | 1.29539 | 15133 ft | 350 kts | 216° |
| 2026-05-07 20:39 | 51.34791 | 1.27229 | 14682 ft | 348 kts | 216° |
| 2026-05-07 20:39 | 51.32876 | 1.24973 | 14253 ft | 345 kts | 216° |
| 2026-05-07 20:39 | 51.30971 | 1.22732 | 14082 ft | 334 kts | 216° |
| 2026-05-07 20:40 | 51.29130 | 1.20567 | 14088 ft | 325 kts | 216° |
| 2026-05-07 20:40 | 51.27317 | 1.18432 | 14094 ft | 323 kts | 216° |
| 2026-05-07 20:40 | 51.25511 | 1.16305 | 14093 ft | 323 kts | 216° |
| 2026-05-07 20:40 | 51.23708 | 1.14181 | 14093 ft | 323 kts | 216° |
| 2026-05-07 20:41 | 51.21902 | 1.12058 | 14093 ft | 323 kts | 216° |
| 2026-05-07 20:41 | 51.20092 | 1.09933 | 14091 ft | 323 kts | 216° |
| 2026-05-07 20:41 | 51.18288 | 1.07813 | 14087 ft | 323 kts | 216° |
| 2026-05-07 20:41 | 51.16480 | 1.05693 | 14091 ft | 322 kts | 216° |
| 2026-05-07 20:42 | 51.14675 | 1.03582 | 14088 ft | 322 kts | 216° |
| 2026-05-07 20:42 | 51.12861 | 1.01462 | 14088 ft | 323 kts | 216° |
| 2026-05-07 20:42 | 51.11052 | 0.99350 | 14087 ft | 323 kts | 216° |
| 2026-05-07 20:42 | 51.09241 | 0.97239 | 14084 ft | 323 kts | 216° |
| 2026-05-07 20:43 | 51.07434 | 0.95126 | 14086 ft | 322 kts | 218° |
| 2026-05-07 20:43 | 51.05837 | 0.92637 | 14083 ft | 323 kts | 231° |
| 2026-05-07 20:43 | 51.04679 | 0.89653 | 14084 ft | 311 kts | 244° |
| 2026-05-07 20:43 | 51.03779 | 0.86594 | 14082 ft | 301 kts | 244° |
| 2026-05-07 20:44 | 51.02889 | 0.83597 | 14080 ft | 299 kts | 244° |
| 2026-05-07 20:44 | 51.01995 | 0.80609 | 13709 ft | 300 kts | 244° |
| 2026-05-07 20:44 | 51.01098 | 0.77617 | 13307 ft | 300 kts | 244° |
| 2026-05-07 20:44 | 51.00204 | 0.74638 | 12945 ft | 298 kts | 244° |
| 2026-05-07 20:45 | 50.99311 | 0.71673 | 12588 ft | 297 kts | 244° |
| 2026-05-07 20:45 | 50.98424 | 0.68722 | 12234 ft | 295 kts | 244° |
| 2026-05-07 20:45 | 50.97542 | 0.65788 | 11884 ft | 294 kts | 244° |
| 2026-05-07 20:45 | 50.96664 | 0.62868 | 11535 ft | 292 kts | 244° |
| 2026-05-07 20:46 | 50.95792 | 0.59974 | 11188 ft | 290 kts | 244° |
| 2026-05-07 20:46 | 50.94918 | 0.57088 | 10840 ft | 289 kts | 244° |
| 2026-05-07 20:46 | 50.94052 | 0.54227 | 10404 ft | 287 kts | 244° |
| 2026-05-07 20:46 | 50.93191 | 0.51380 | 10074 ft | 285 kts | 244° |
| 2026-05-07 20:47 | 50.92339 | 0.48556 | 9721 ft | 284 kts | 245° |
| 2026-05-07 20:47 | 50.91733 | 0.45593 | 9329 ft | 282 kts | 260° |
| 2026-05-07 20:47 | 50.91672 | 0.42555 | 9022 ft | 279 kts | 276° |
| 2026-05-07 20:47 | 50.91971 | 0.40326 | 8993 ft | 278 kts | 286° |
| 2026-05-07 20:48 | 50.92515 | 0.37389 | 8999 ft | 278 kts | 285° |
| 2026-05-07 20:48 | 50.93051 | 0.34446 | 9002 ft | 277 kts | 285° |
| 2026-05-07 20:48 | 50.93570 | 0.31591 | 8994 ft | 262 kts | 285° |
| 2026-05-07 20:48 | 50.94063 | 0.28894 | 8991 ft | 248 kts | 285° |
| 2026-05-07 20:49 | 50.94794 | 0.26306 | 9005 ft | 270 kts | 305° |
| 2026-05-07 20:49 | 50.96019 | 0.23980 | 9000 ft | 278 kts | 311° |
| 2026-05-07 20:49 | 50.97324 | 0.21704 | 8988 ft | 279 kts | 311° |
| 2026-05-07 20:49 | 50.98636 | 0.19433 | 8991 ft | 279 kts | 311° |
| 2026-05-07 20:50 | 50.99954 | 0.17153 | 8990 ft | 280 kts | 311° |
| 2026-05-07 20:50 | 51.01266 | 0.14881 | 8988 ft | 280 kts | 311° |
| 2026-05-07 20:50 | 51.02580 | 0.12608 | 9081 ft | 280 kts | 311° |
| 2026-05-07 20:50 | 51.03895 | 0.10329 | 9079 ft | 279 kts | 311° |
| 2026-05-07 20:51 | 51.05205 | 0.08051 | 9082 ft | 279 kts | 310° |
| 2026-05-07 20:51 | 51.06184 | 0.05421 | 9084 ft | 277 kts | 286° |
| 2026-05-07 20:51 | 51.06327 | 0.02419 | 9090 ft | 271 kts | 261° |
| 2026-05-07 20:51 | 51.05966 | -0.00432 | 9080 ft | 255 kts | 257° |
| 2026-05-07 20:52 | 51.05563 | -0.03113 | 9082 ft | 245 kts | 256° |
| 2026-05-07 20:52 | 51.05155 | -0.05767 | 8681 ft | 253 kts | 256° |
| 2026-05-07 20:52 | 51.04722 | -0.08581 | 7846 ft | 271 kts | 256° |
| 2026-05-07 20:52 | 51.04267 | -0.11550 | 7251 ft | 278 kts | 256° |
| 2026-05-07 20:53 | 51.03818 | -0.14492 | 7102 ft | 272 kts | 256° |
| 2026-05-07 20:53 | 51.03372 | -0.17408 | 7075 ft | 271 kts | 256° |
| 2026-05-07 20:53 | 51.02938 | -0.20243 | 7063 ft | 256 kts | 256° |
| 2026-05-07 20:53 | 51.02525 | -0.22926 | 6925 ft | 245 kts | 256° |
| 2026-05-07 20:54 | 51.02125 | -0.25513 | 6742 ft | 238 kts | 256° |
| 2026-05-07 20:54 | 51.01732 | -0.28068 | 6428 ft | 238 kts | 256° |
| 2026-05-07 20:54 | 51.01340 | -0.30618 | 6099 ft | 238 kts | 256° |
| 2026-05-07 20:54 | 51.00952 | -0.33167 | 5783 ft | 238 kts | 256° |
| 2026-05-07 20:55 | 51.00568 | -0.35726 | 5472 ft | 238 kts | 256° |
| 2026-05-07 20:55 | 51.00187 | -0.38279 | 5166 ft | 238 kts | 256° |
| 2026-05-07 20:55 | 50.99810 | -0.40829 | 4872 ft | 237 kts | 256° |
| 2026-05-07 20:55 | 50.99646 | -0.43418 | 4544 ft | 237 kts | 278° |
| 2026-05-07 20:56 | 51.00290 | -0.45847 | 3906 ft | 248 kts | 310° |
| 2026-05-07 20:56 | 51.01673 | -0.47463 | 3413 ft | 250 kts | 337° |
| 2026-05-07 20:56 | 51.03258 | -0.48483 | 3222 ft | 241 kts | 341° |
| 2026-05-07 20:56 | 51.04806 | -0.49404 | 3039 ft | 236 kts | 341° |
| 2026-05-07 20:57 | 51.06338 | -0.50308 | 2997 ft | 234 kts | 342° |
| 2026-05-07 20:57 | 51.07916 | -0.50637 | 2996 ft | 230 kts | 12° |
| 2026-05-07 20:57 | 51.09371 | -0.49733 | 3001 ft | 222 kts | 36° |
| 2026-05-07 20:57 | 51.10435 | -0.48116 | 3007 ft | 209 kts | 57° |
| 2026-05-07 20:58 | 51.11024 | -0.46162 | 3016 ft | 182 kts | 76° |
| 2026-05-07 20:58 | 51.11284 | -0.44345 | 3027 ft | 154 kts | 79° |
| 2026-05-07 20:58 | 51.11511 | -0.42736 | 2959 ft | 145 kts | 79° |
| 2026-05-07 20:58 | 51.11726 | -0.41202 | 2823 ft | 140 kts | 79° |
| 2026-05-07 20:59 | 51.11937 | -0.39696 | 2659 ft | 139 kts | 79° |
| 2026-05-07 20:59 | 51.12147 | -0.38204 | 2481 ft | 138 kts | 79° |
| 2026-05-07 20:59 | 51.12355 | -0.36716 | 2294 ft | 137 kts | 79° |
| 2026-05-07 20:59 | 51.12562 | -0.35232 | 2108 ft | 137 kts | 79° |
| 2026-05-07 21:00 | 51.12699 | -0.34253 | 1987 ft | 137 kts | 79° |
| 2026-05-07 21:00 | 51.12905 | -0.32774 | 1798 ft | 137 kts | 79° |
| 2026-05-07 21:00 | 51.13112 | -0.31292 | 1610 ft | 137 kts | 79° |
| 2026-05-07 21:00 | 51.13318 | -0.29817 | 1417 ft | 137 kts | 79° |
| 2026-05-07 21:01 | 51.13523 | -0.28340 | 1229 ft | 136 kts | 79° |
| 2026-05-07 21:01 | 51.13724 | -0.26893 | 1041 ft | 137 kts | 78° |
| 2026-05-07 21:01 | 51.13929 | -0.25417 | 850 ft | 136 kts | 79° |
| 2026-05-07 21:01 | 51.14135 | -0.23948 | 666 ft | 137 kts | 78° |
| 2026-05-07 21:02 | 51.14350 | -0.22480 | 450 ft | 136 kts | 78° |
| 2026-05-07 21:02 | 51.14544 | -0.21011 | 293 ft | 135 kts | 79° |
| 2026-05-07 21:02 | 51.14738 | -0.19581 | 210 ft | 119 kts | 77° |
| 2026-05-07 21:02 | 51.14883 | -0.18530 | 207 ft | 77 kts | 77° |
| 2026-05-07 21:03 | 51.14976 | -0.17863 | 213 ft | 51 kts | 77° |
| 2026-05-07 21:03 | 51.15049 | -0.17340 | 211 ft | 46 kts | 78° |
| 2026-05-07 21:03 | 51.15104 | -0.17131 | 213 ft | 0 kts | 42° |
| 2026-05-07 21:03 | 51.15115 | -0.17138 | 209 ft | 3 kts | 338° |
| 2026-05-07 21:04 | 51.15138 | -0.17151 | 211 ft | 0 kts | 343° |
| 2026-05-07 21:04 | 51.15151 | -0.17157 | 212 ft | 7 kts | 343° |
| 2026-05-07 21:04 | 51.15174 | -0.17209 | 212 ft | 6 kts | 294° |
| 2026-05-07 21:04 | 51.15195 | -0.17260 | 209 ft | 5 kts | 314° |
| 2026-05-07 21:05 | 51.15223 | -0.17293 | 209 ft | 5 kts | 326° |
| 2026-05-07 21:05 | 51.15250 | -0.17322 | 212 ft | 4 kts | 324° |
| 2026-05-07 21:05 | 51.15275 | -0.17345 | 214 ft | 4 kts | 338° |
| 2026-05-07 21:05 | 51.15329 | -0.17367 | 217 ft | 15 kts | 347° |
| 2026-05-07 21:06 | 51.15431 | -0.17403 | 206 ft | 14 kts | 348° |
| 2026-05-07 21:06 | 51.15532 | -0.17437 | 207 ft | 16 kts | 348° |
| 2026-05-07 21:06 | 51.15634 | -0.17471 | 207 ft | 14 kts | 348° |
| 2026-05-07 21:06 | 51.15725 | -0.17503 | 209 ft | 12 kts | 352° |
| 2026-05-07 21:07 | 51.15773 | -0.17423 | 208 ft | 10 kts | 76° |
| 2026-05-07 21:07 | 51.15791 | -0.17301 | 205 ft | 12 kts | 77° |
| 2026-05-07 21:07 | 51.15810 | -0.17164 | 215 ft | 13 kts | 78° |
| 2026-05-07 21:07 | 51.15795 | -0.17044 | 210 ft | 11 kts | 74° |
| 2026-05-07 21:08 | 51.15803 | -0.17007 | 213 ft | 0 kts | 72° |
| 2026-05-07 21:08 | 51.15807 | -0.16987 | 212 ft | 3 kts | 70° |
| 2026-05-07 21:08 | 51.15811 | -0.16970 | 214 ft | 0 kts | 71° |